Time;durP1;ratioP1;P1;durP2;ratioP2;P2;SDS_P1;SDS_P2;PMS_P1;PMS_P2;Temp;Humidity;BMP_temperature;BMP_pressure;BME280_temperature;BME280_humidity;BME280_pressure;Samples;Min_cycle;Max_cycle;Signal;HPM_P1;HPM_P2
2023/11/15 00:00:33;;;;;;;0.13;0.10;;;;;;;13.10;59.90;98881.19;5323862;26;20661;-87
2023/11/15 00:02:58;;;;;;;0.10;0.10;;;;;;;13.02;59.89;98884.25;5287432;26;20064;-86
2023/11/15 00:05:24;;;;;;;0.03;0.03;;;;;;;12.89;59.89;98891.91;5323539;26;21069;-87
2023/11/15 00:07:49;;;;;;;0.55;0.55;;;;;;;12.84;59.89;98893.09;5324410;26;20064;-87
2023/11/15 00:10:15;;;;;;;0.05;0.05;;;;;;;12.85;59.89;98894.78;5305052;26;26961;-87
2023/11/15 00:12:42;;;;;;;0.00;0.00;;;;;;;12.91;59.89;98894.44;5324120;26;20101;-87
2023/11/15 00:15:07;;;;;;;0.65;0.65;;;;;;;12.87;59.89;98903.37;5288017;26;20060;-87
2023/11/15 00:17:33;;;;;;;0.22;0.22;;;;;;;13.11;59.90;98894.19;5324134;26;20102;-87
2023/11/15 00:19:59;;;;;;;0.70;0.52;;;;;;;12.91;59.89;98891.81;5324208;26;20295;-87
2023/11/15 00:22:25;;;;;;;0.00;0.00;;;;;;;12.89;59.88;98904.13;5324726;26;20076;-87
2023/11/15 00:24:51;;;;;;;0.85;0.20;;;;;;;12.85;59.88;98923.50;5324716;26;20065;-87
2023/11/15 00:27:16;;;;;;;0.00;0.00;;;;;;;13.08;59.89;98938.78;5306253;26;20052;-86
2023/11/15 00:29:43;;;;;;;0.00;0.00;;;;;;;13.18;59.90;98946.97;5305778;26;20303;-87
2023/11/15 00:32:08;;;;;;;0.30;0.10;;;;;;;12.86;59.88;98946.09;5325020;26;20114;-87
2023/11/15 00:34:33;;;;;;;0.00;0.00;;;;;;;12.87;59.89;98921.66;5305682;26;25022;-87
2023/11/15 00:36:59;;;;;;;0.13;0.13;;;;;;;13.07;59.90;98894.44;5306455;26;20052;-87
2023/11/15 00:39:24;;;;;;;2.70;1.62;;;;;;;13.09;59.89;98911.72;5324153;26;20158;-87
2023/11/15 00:41:50;;;;;;;0.08;0.08;;;;;;;12.88;59.89;98915.50;5324789;26;20056;-88
2023/11/15 00:44:16;;;;;;;0.00;0.00;;;;;;;12.86;59.88;98928.66;5306067;26;20112;-87
2023/11/15 00:46:41;;;;;;;0.37;0.37;;;;;;;12.89;59.89;98920.66;5306372;26;20415;-88
2023/11/15 00:49:07;;;;;;;0.00;0.00;;;;;;;12.87;59.89;98911.22;5323768;26;20107;-87
2023/11/15 00:51:33;;;;;;;0.43;0.43;;;;;;;12.75;59.88;98909.25;5323714;26;28031;-87
2023/11/15 00:54:01;;;;;;;0.08;0.08;;;;;;;12.78;59.88;98896.06;5306226;26;20110;-86
2023/11/15 00:56:27;;;;;;;1.30;0.62;;;;;;;12.79;59.88;98901.19;5324833;26;20071;-88
2023/11/15 00:58:54;;;;;;;0.00;0.00;;;;;;;12.95;59.89;98901.19;5305500;26;34067;-87
2023/11/15 01:01:19;;;;;;;0.32;0.30;;;;;;;12.75;59.89;98898.81;5325499;26;20402;-88
2023/11/15 01:03:55;;;;;;;0.00;0.00;;;;;;;12.81;59.88;98893.28;5324906;26;20116;-88
2023/11/15 01:06:22;;;;;;;0.30;0.30;;;;;;;12.64;59.87;98885.50;5326326;26;20058;-88
2023/11/15 01:08:47;;;;;;;0.00;0.00;;;;;;;12.70;59.88;98885.16;5288109;26;20080;-87
2023/11/15 01:11:12;;;;;;;0.00;0.00;;;;;;;12.76;59.88;98882.22;5324143;26;21076;-88
2023/11/15 01:13:38;;;;;;;0.00;0.00;;;;;;;12.79;59.89;98887.28;5305490;26;20115;-87
2023/11/15 01:16:04;;;;;;;0.00;0.00;;;;;;;12.77;59.88;98881.28;5306415;26;20123;-88
2023/11/15 01:18:30;;;;;;;0.00;0.00;;;;;;;12.85;59.89;98881.72;5306205;26;20053;-87
2023/11/15 01:20:55;;;;;;;0.00;0.00;;;;;;;12.74;59.89;98895.34;5306204;26;20078;-88
2023/11/15 01:23:21;;;;;;;0.28;0.28;;;;;;;12.71;59.88;98886.84;5306241;26;20120;-88
2023/11/15 01:25:46;;;;;;;0.15;0.15;;;;;;;12.79;59.88;98893.34;5324408;26;20064;-87
2023/11/15 01:28:12;;;;;;;0.03;0.03;;;;;;;12.83;59.89;98894.03;5305785;26;20045;-87
2023/11/15 01:30:38;;;;;;;0.00;0.00;;;;;;;12.85;59.88;98910.47;5324610;26;20116;-87
2023/11/15 01:33:04;;;;;;;0.10;0.10;;;;;;;12.88;59.90;98911.13;5306139;26;20059;-88
2023/11/15 01:35:30;;;;;;;0.00;0.00;;;;;;;12.69;59.88;98920.88;5306197;26;20083;-87
2023/11/15 01:37:55;;;;;;;0.00;0.00;;;;;;;12.61;59.88;98923.06;5305907;26;20429;-88
2023/11/15 01:40:21;;;;;;;0.00;0.00;;;;;;;12.62;59.87;98924.75;5305126;26;31761;-88
2023/11/15 01:42:49;;;;;;;0.17;0.17;;;;;;;12.51;59.87;98921.84;5305996;26;20405;-88
2023/11/15 01:45:15;;;;;;;0.00;0.00;;;;;;;12.54;59.87;98919.09;5306091;26;20124;-88
2023/11/15 01:47:41;;;;;;;0.00;0.00;;;;;;;12.59;59.87;98915.31;5305084;26;20057;-87
2023/11/15 01:50:10;;;;;;;0.00;0.00;;;;;;;12.65;59.87;98913.28;5323582;26;20056;-87
2023/11/15 01:52:36;;;;;;;0.00;0.00;;;;;;;12.52;59.87;98908.72;5306124;26;20076;-87
2023/11/15 01:55:03;;;;;;;0.00;0.00;;;;;;;12.60;59.88;98892.66;5305561;26;20101;-87
2023/11/15 01:57:30;;;;;;;0.10;0.10;;;;;;;12.42;59.86;98889.25;5305416;26;20049;-87
2023/11/15 01:59:55;;;;;;;0.00;0.00;;;;;;;12.32;59.85;98903.72;5305134;26;20064;-87
2023/11/15 02:02:20;;;;;;;0.00;0.00;;;;;;;12.35;59.86;98902.72;5322591;26;33416;-87
2023/11/15 02:04:46;;;;;;;0.00;0.00;;;;;;;12.48;59.87;98909.81;5305067;26;20094;-85
2023/11/15 02:07:11;;;;;;;0.00;0.00;;;;;;;12.34;59.85;98890.59;5323954;26;20083;-87
2023/11/15 02:09:37;;;;;;;0.00;0.00;;;;;;;12.32;59.85;98887.22;5305506;26;20092;-86
2023/11/15 02:12:03;;;;;;;0.00;0.00;;;;;;;12.21;59.86;98899.06;5323643;26;20065;-87
2023/11/15 02:14:30;;;;;;;0.15;0.15;;;;;;;12.24;59.86;98883.25;5305245;26;20052;-87
2023/11/15 02:16:55;;;;;;;0.00;0.00;;;;;;;12.14;59.85;98887.25;5287454;26;20044;-87
2023/11/15 02:19:21;;;;;;;0.10;0.10;;;;;;;12.16;59.85;98881.97;5323545;26;20071;-86
2023/11/15 02:21:46;;;;;;;0.00;0.00;;;;;;;12.17;59.85;98881.03;5305376;26;20108;-87
2023/11/15 02:24:11;;;;;;;0.00;0.00;;;;;;;12.17;59.85;98876.66;5305337;26;20394;-86
2023/11/15 02:26:37;;;;;;;0.00;0.00;;;;;;;12.10;59.84;98856.22;5323276;26;20048;-87
2023/11/15 02:29:02;;;;;;;0.00;0.00;;;;;;;12.14;59.85;98857.72;5323585;26;20072;-87
2023/11/15 02:31:28;;;;;;;0.00;0.00;;;;;;;11.93;59.83;98851.84;5304789;26;20426;-87
2023/11/15 02:33:53;;;;;;;0.10;0.10;;;;;;;11.93;59.84;98852.69;5304402;26;32814;-87
2023/11/15 02:36:18;;;;;;;0.00;0.00;;;;;;;11.90;59.83;98857.25;5304104;26;35888;-87
2023/11/15 02:38:44;;;;;;;0.00;0.00;;;;;;;12.08;59.84;98860.66;5304071;26;32192;-87
2023/11/15 02:41:09;;;;;;;0.13;0.13;;;;;;;12.06;59.84;98834.63;5304959;26;20079;-87
2023/11/15 02:43:35;;;;;;;0.00;0.00;;;;;;;12.23;59.85;98849.41;5304697;26;24425;-87
2023/11/15 02:46:00;;;;;;;0.10;0.10;;;;;;;11.93;59.83;98831.84;5323647;26;20096;-88
2023/11/15 02:48:26;;;;;;;0.28;0.28;;;;;;;12.11;59.85;98848.31;5304988;26;20076;-87
2023/11/15 02:50:52;;;;;;;0.20;0.20;;;;;;;11.85;59.84;98849.66;5305385;26;20080;-87
2023/11/15 02:53:19;;;;;;;0.10;0.10;;;;;;;11.85;59.84;98860.09;5305600;26;20056;-88
2023/11/15 02:55:44;;;;;;;0.00;0.00;;;;;;;11.83;59.83;98846.28;5306090;26;20083;-88
2023/11/15 02:58:11;;;;;;;0.75;0.45;;;;;;;11.62;59.81;98848.19;5306086;26;20056;-88
2023/11/15 03:00:37;;;;;;;0.00;0.00;;;;;;;11.37;59.81;98843.37;5305887;26;20745;-89
2023/11/15 03:03:04;;;;;;;0.00;0.00;;;;;;;11.31;59.81;98848.84;5305654;26;20052;-89
2023/11/15 03:05:29;;;;;;;0.00;0.00;;;;;;;11.50;59.81;98847.94;5305706;26;20098;-88
2023/11/15 03:07:55;;;;;;;0.00;0.00;;;;;;;11.52;59.81;98841.72;5305849;26;20092;-88
2023/11/15 03:10:20;;;;;;;0.13;0.13;;;;;;;11.55;59.81;98843.34;5304397;26;24181;-88
2023/11/15 03:12:46;;;;;;;0.00;0.00;;;;;;;11.57;59.82;98838.88;5323713;26;20917;-88
2023/11/15 03:15:11;;;;;;;0.00;0.00;;;;;;;11.43;59.81;98825.72;5305713;26;20112;-88
2023/11/15 03:17:38;;;;;;;0.85;0.65;;;;;;;11.27;59.80;98839.50;5323871;26;20052;-87
2023/11/15 03:20:05;;;;;;;0.62;0.62;;;;;;;11.50;59.81;98837.53;5305777;26;20091;-88
2023/11/15 03:22:30;;;;;;;0.20;0.10;;;;;;;11.40;59.81;98837.16;5324550;26;20066;-87
2023/11/15 03:24:56;;;;;;;0.00;0.00;;;;;;;11.28;59.80;98851.63;5324346;26;20049;-87
2023/11/15 03:27:21;;;;;;;0.25;0.25;;;;;;;11.18;59.79;98853.00;5323183;26;20890;-87
2023/11/15 03:29:47;;;;;;;0.00;0.00;;;;;;;11.33;59.80;98854.81;5305383;26;20060;-87
2023/11/15 03:32:12;;;;;;;0.00;0.00;;;;;;;11.19;59.79;98870.31;5323864;26;20096;-87
2023/11/15 03:34:40;;;;;;;0.00;0.00;;;;;;;11.25;59.80;98864.78;5305168;26;20114;-88
2023/11/15 03:37:06;;;;;;;0.35;0.30;;;;;;;11.11;59.79;98867.22;5305191;26;20060;-88
2023/11/15 03:39:31;;;;;;;0.10;0.10;;;;;;;11.26;59.80;98865.63;5305378;26;20087;-88
2023/11/15 03:41:57;;;;;;;0.00;0.00;;;;;;;11.01;59.79;98866.81;5305387;26;20108;-87
2023/11/15 03:44:22;;;;;;;0.00;0.00;;;;;;;11.11;59.79;98856.78;5304477;26;26384;-88
2023/11/15 03:46:47;;;;;;;0.03;0.03;;;;;;;11.07;59.79;98855.25;5304612;26;20607;-87
2023/11/15 03:49:13;;;;;;;0.10;0.10;;;;;;;11.18;59.80;98859.97;5305004;26;20068;-88
2023/11/15 03:51:38;;;;;;;0.00;0.00;;;;;;;11.17;59.79;98864.34;5304790;26;29750;-87
2023/11/15 03:54:04;;;;;;;0.55;0.55;;;;;;;11.12;59.79;98868.06;5304989;26;20063;-87
2023/11/15 03:56:29;;;;;;;0.20;0.20;;;;;;;10.92;59.79;98871.63;5305333;26;20071;-88
2023/11/15 03:58:55;;;;;;;0.00;0.00;;;;;;;11.10;59.79;98869.88;5304320;26;25300;-88
2023/11/15 04:01:20;;;;;;;0.00;0.00;;;;;;;10.89;59.78;98866.56;5304348;26;32747;-88
2023/11/15 04:03:45;;;;;;;0.10;0.10;;;;;;;11.12;59.79;98871.53;5304587;26;27089;-88
2023/11/15 04:06:11;;;;;;;0.13;0.13;;;;;;;11.03;59.79;98871.94;5305138;26;20080;-86
2023/11/15 04:08:36;;;;;;;0.00;0.00;;;;;;;11.01;59.79;98871.19;5304488;26;26434;-87
2023/11/15 04:11:02;;;;;;;0.95;0.85;;;;;;;10.84;59.77;98868.53;5304552;26;28431;-87
2023/11/15 04:13:27;;;;;;;2.40;0.35;;;;;;;10.62;59.76;98873.87;5323795;26;20401;-87
2023/11/15 04:15:54;;;;;;;0.00;0.00;;;;;;;10.40;59.75;98880.06;5324935;26;20093;-87
2023/11/15 04:18:20;;;;;;;0.10;0.10;;;;;;;10.42;59.75;98883.47;5306146;26;20064;-87
2023/11/15 04:20:46;;;;;;;0.08;0.08;;;;;;;10.60;59.76;98875.72;5306103;26;20071;-88
2023/11/15 04:23:11;;;;;;;2.20;0.25;;;;;;;10.31;59.74;98869.25;5304847;26;33337;-86
2023/11/15 04:25:36;;;;;;;0.10;0.10;;;;;;;10.04;59.74;98861.72;5305983;26;32260;-87
2023/11/15 04:28:04;;;;;;;0.10;0.10;;;;;;;9.96;59.73;98862.97;5305834;26;20079;-87
2023/11/15 04:30:30;;;;;;;0.25;0.22;;;;;;;10.25;59.75;98856.53;5324845;26;20048;-87
2023/11/15 04:32:55;;;;;;;0.00;0.00;;;;;;;10.15;59.73;98853.44;5306327;26;20090;-87
2023/11/15 04:35:20;;;;;;;0.08;0.08;;;;;;;10.12;59.74;98857.03;5305327;26;33299;-87
2023/11/15 04:37:46;;;;;;;0.10;0.10;;;;;;;10.21;59.74;98852.38;5306136;26;20064;-87
2023/11/15 04:40:11;;;;;;;0.10;0.10;;;;;;;10.28;59.74;98858.97;5305010;26;31360;-88
2023/11/15 04:42:37;;;;;;;2.00;0.37;;;;;;;10.48;59.76;98856.31;5306134;26;20072;-87
2023/11/15 04:45:04;;;;;;;1.27;0.90;;;;;;;10.50;59.76;98854.50;5306121;26;20084;-87
2023/11/15 04:47:30;;;;;;;0.80;0.62;;;;;;;10.16;59.73;98860.31;5287906;26;20072;-87
2023/11/15 04:49:55;;;;;;;0.00;0.00;;;;;;;10.16;59.74;98862.91;5305995;26;20084;-86
2023/11/15 04:52:21;;;;;;;0.00;0.00;;;;;;;10.00;59.73;98859.34;5306011;26;20059;-87
2023/11/15 04:54:46;;;;;;;0.10;0.10;;;;;;;9.80;59.73;98858.44;5306232;26;20083;-87
2023/11/15 04:57:12;;;;;;;1.15;1.05;;;;;;;9.70;59.71;98854.56;5305871;26;24045;-87
2023/11/15 04:59:37;;;;;;;0.57;0.57;;;;;;;9.70;59.71;98854.56;5305831;26;20447;-87
2023/11/15 05:02:03;;;;;;;1.12;0.90;;;;;;;9.81;59.72;98856.69;5324035;26;24442;-88
2023/11/15 05:04:29;;;;;;;1.00;0.50;;;;;;;9.82;59.72;98858.37;5287893;26;20122;-87
2023/11/15 05:06:54;;;;;;;0.35;0.32;;;;;;;9.98;59.73;98855.97;5287893;26;20151;-88
2023/11/15 05:09:20;;;;;;;0.00;0.00;;;;;;;9.92;59.73;98851.00;5305666;26;22026;-86
2023/11/15 05:11:46;;;;;;;0.20;0.20;;;;;;;9.77;59.71;98855.97;5306385;26;20406;-88
2023/11/15 05:14:12;;;;;;;0.43;0.43;;;;;;;9.68;59.72;98858.09;5306552;26;24047;-88
2023/11/15 05:16:37;;;;;;;0.10;0.10;;;;;;;9.70;59.71;98861.47;5307106;26;20076;-88
2023/11/15 05:19:03;;;;;;;0.00;0.00;;;;;;;9.51;59.70;98851.03;5306614;26;20052;-88
2023/11/15 05:21:28;;;;;;;0.22;0.22;;;;;;;9.47;59.70;98854.69;5306089;26;20408;-88
2023/11/15 05:23:55;;;;;;;3.25;0.43;;;;;;;9.40;59.70;98855.81;5306398;26;20380;-88
2023/11/15 05:26:20;;;;;;;0.00;0.00;;;;;;;9.52;59.70;98857.94;5306819;26;20057;-88
2023/11/15 05:28:45;;;;;;;0.00;0.00;;;;;;;9.48;59.70;98856.38;5305874;26;27527;-88
2023/11/15 05:31:11;;;;;;;0.00;0.00;;;;;;;9.79;59.71;98850.72;5306038;26;20078;-87
2023/11/15 05:33:36;;;;;;;0.00;0.00;;;;;;;9.73;59.72;98854.41;5306379;26;20056;-87
2023/11/15 05:36:02;;;;;;;0.00;0.00;;;;;;;9.99;59.73;98845.50;5324293;26;22634;-87
2023/11/15 05:38:27;;;;;;;0.43;0.43;;;;;;;9.94;59.72;98844.00;5306485;26;20369;-87
2023/11/15 05:40:53;;;;;;;0.00;0.00;;;;;;;10.18;59.74;98850.72;5306705;26;20057;-87
2023/11/15 05:43:18;;;;;;;0.95;0.10;;;;;;;10.13;59.74;98847.47;5306367;26;20072;-88
2023/11/15 05:45:44;;;;;;;0.00;0.00;;;;;;;10.21;59.74;98844.56;5323658;26;30426;-88
2023/11/15 05:48:09;;;;;;;0.00;0.00;;;;;;;10.47;59.75;98835.59;5324409;26;20068;-89
2023/11/15 05:50:34;;;;;;;0.00;0.00;;;;;;;10.38;59.75;98844.63;5306582;26;20068;-89
2023/11/15 05:53:00;;;;;;;0.00;0.00;;;;;;;10.44;59.75;98853.03;5306026;26;32347;-88
2023/11/15 05:55:25;;;;;;;0.00;0.00;;;;;;;10.43;59.76;98851.34;5306787;26;20418;-87
2023/11/15 05:57:51;;;;;;;0.00;0.00;;;;;;;10.52;59.75;98852.66;5305374;26;36539;-88
2023/11/15 06:00:20;;;;;;;0.00;0.00;;;;;;;10.44;59.75;98863.44;5306136;26;20044;-87
2023/11/15 06:02:49;;;;;;;0.00;0.00;;;;;;;10.54;59.75;98869.03;5325213;26;20064;-88
2023/11/15 06:05:18;;;;;;;0.00;0.00;;;;;;;10.47;59.75;98869.41;5306479;26;20075;-87
2023/11/15 06:07:43;;;;;;;0.00;0.00;;;;;;;10.65;59.76;98868.56;5307089;26;20146;-87
2023/11/15 06:10:10;;;;;;;0.00;0.00;;;;;;;10.60;59.76;98867.91;5325216;26;20053;-87
2023/11/15 06:12:35;;;;;;;0.00;0.00;;;;;;;10.76;59.76;98866.28;5288778;26;20120;-88
2023/11/15 06:15:08;;;;;;;0.00;0.00;;;;;;;10.71;59.77;98871.72;5305089;26;35506;-88
2023/11/15 06:17:34;;;;;;;0.22;0.10;;;;;;;10.59;59.76;98859.25;5308339;26;20056;-87
2023/11/15 06:19:59;;;;;;;0.22;0.22;;;;;;;10.58;59.76;98854.97;5306522;26;20048;-87
2023/11/15 06:22:25;;;;;;;0.00;0.00;;;;;;;10.63;59.77;98855.59;5306029;26;21409;-88
2023/11/15 06:24:52;;;;;;;0.00;0.00;;;;;;;10.66;59.77;98860.69;5306208;26;20065;-88
2023/11/15 06:27:18;;;;;;;0.00;0.00;;;;;;;10.76;59.77;98859.34;5306597;26;20056;-88
2023/11/15 06:29:47;;;;;;;0.00;0.00;;;;;;;10.75;59.77;98849.00;5325048;26;20049;-88
2023/11/15 06:32:13;;;;;;;0.00;0.00;;;;;;;10.82;59.77;98846.94;5288146;26;20111;-87
2023/11/15 06:34:38;;;;;;;0.00;0.00;;;;;;;10.97;59.78;98848.81;5324928;26;20129;-88
2023/11/15 06:37:05;;;;;;;0.00;0.00;;;;;;;10.98;59.78;98851.34;5305771;26;20056;-88
2023/11/15 06:39:31;;;;;;;0.00;0.00;;;;;;;11.06;59.79;98854.41;5305815;26;20048;-87
2023/11/15 06:41:56;;;;;;;0.00;0.00;;;;;;;11.13;59.79;98854.16;5305642;26;20479;-88
2023/11/15 06:44:22;;;;;;;0.10;0.10;;;;;;;11.12;59.79;98852.44;5306504;26;20057;-88
2023/11/15 06:46:47;;;;;;;0.00;0.00;;;;;;;11.05;59.78;98847.53;5323975;26;26537;-87
2023/11/15 06:49:18;;;;;;;0.00;0.00;;;;;;;11.09;59.79;98837.78;5304604;26;31101;-91
2023/11/15 06:51:48;;;;;;;0.00;0.00;;;;;;;11.17;59.80;98834.84;5288962;26;20438;-89
2023/11/15 06:54:16;;;;;;;0.00;0.00;;;;;;;11.19;59.79;98839.06;5325096;26;20178;-91
2023/11/15 06:56:48;;;;;;;0.00;0.00;;;;;;;11.33;59.80;98825.31;5307294;26;20074;-89
2023/11/15 06:59:17;;;;;;;0.00;0.00;;;;;;;11.50;59.81;98819.28;5290799;26;20016;-89
2023/11/15 07:01:42;;;;;;;0.00;0.00;;;;;;;11.41;59.81;98822.34;5308047;26;20750;-89
2023/11/15 07:04:08;;;;;;;0.00;0.00;;;;;;;11.58;59.81;98809.31;5307176;26;20080;-90
2023/11/15 07:06:33;;;;;;;0.00;0.00;;;;;;;11.75;59.82;98826.69;5306614;26;20108;-89
2023/11/15 07:08:59;;;;;;;0.00;0.00;;;;;;;11.74;59.82;98802.38;5305804;26;20107;-88
2023/11/15 07:11:26;;;;;;;0.00;0.00;;;;;;;11.73;59.82;98818.94;5287905;26;20063;-88
2023/11/15 07:13:52;;;;;;;0.00;0.00;;;;;;;11.80;59.83;98819.50;5306244;26;20091;-90
2023/11/15 07:16:20;;;;;;;0.00;0.00;;;;;;;11.89;59.83;98837.28;5306616;26;20063;-89
2023/11/15 07:18:45;;;;;;;0.00;0.00;;;;;;;11.91;59.84;98809.38;5306655;26;20060;-90
2023/11/15 07:21:11;;;;;;;0.03;0.03;;;;;;;11.94;59.83;98807.44;5306651;26;25499;-91
2023/11/15 07:23:36;;;;;;;0.00;0.00;;;;;;;11.91;59.84;98819.81;5307229;26;20072;-89
2023/11/15 07:26:02;;;;;;;0.00;0.00;;;;;;;12.08;59.84;98817.16;5306921;26;20067;-90
2023/11/15 07:28:28;;;;;;;0.00;0.00;;;;;;;12.22;59.85;98816.41;5307167;26;20052;-91
2023/11/15 07:30:55;;;;;;;0.00;0.00;;;;;;;12.39;59.86;98826.78;5298983;27;20079;-91
2023/11/15 07:33:21;;;;;;;0.00;0.00;;;;;;;12.37;59.86;98819.97;5281569;27;20036;-90
2023/11/15 07:35:47;;;;;;;0.00;0.00;;;;;;;12.38;59.86;98809.44;5299522;27;20057;-90
2023/11/15 07:38:13;;;;;;;0.00;0.00;;;;;;;12.48;59.86;98807.16;5299791;27;20045;-92
2023/11/15 07:40:38;;;;;;;0.00;0.00;;;;;;;12.57;59.86;98801.47;5299905;27;20076;-90
2023/11/15 07:43:07;;;;;;;0.00;0.00;;;;;;;12.66;59.88;98800.09;5299673;27;20069;-89
2023/11/15 07:45:35;;;;;;;0.00;0.00;;;;;;;12.69;59.88;98782.50;5300160;27;20083;-89
2023/11/15 07:48:01;;;;;;;0.00;0.00;;;;;;;12.86;59.88;98789.37;5299550;27;20048;-89
2023/11/15 07:50:27;;;;;;;0.00;0.00;;;;;;;12.91;59.89;98790.81;5281602;27;20198;-89
2023/11/15 07:52:53;;;;;;;0.13;0.13;;;;;;;12.92;59.89;98796.87;5300489;27;20057;-88
2023/11/15 07:55:18;;;;;;;0.03;0.03;;;;;;;12.94;59.89;98799.38;5299510;27;20049;-89
2023/11/15 07:57:44;;;;;;;0.00;0.00;;;;;;;12.93;59.89;98819.44;5299481;27;20087;-88
2023/11/15 08:00:11;;;;;;;0.15;0.15;;;;;;;13.03;59.89;98786.66;5300182;27;20083;-89
2023/11/15 08:02:37;;;;;;;0.43;0.20;;;;;;;13.12;59.90;98801.81;5281295;27;20081;-89
2023/11/15 08:05:07;;;;;;;0.10;0.10;;;;;;;13.17;59.90;98823.31;5300057;27;20072;-89
2023/11/15 08:07:34;;;;;;;0.00;0.00;;;;;;;13.02;59.89;98813.72;5299917;27;20055;-89
2023/11/15 08:09:59;;;;;;;0.00;0.00;;;;;;;13.06;59.90;98814.38;5299556;27;20061;-88
2023/11/15 08:12:26;;;;;;;0.00;0.00;;;;;;;13.05;59.90;98838.81;5299348;27;20052;-87
2023/11/15 08:14:51;;;;;;;0.08;0.08;;;;;;;13.15;59.90;98847.81;5300546;27;20053;-89
2023/11/15 08:17:16;;;;;;;0.00;0.00;;;;;;;13.06;59.90;98843.97;5300107;27;20311;-88
2023/11/15 08:19:44;;;;;;;0.00;0.00;;;;;;;13.18;59.90;98858.13;5280297;27;20135;-88
2023/11/15 08:22:09;;;;;;;0.00;0.00;;;;;;;13.32;59.91;98847.72;5280969;27;20060;-87
2023/11/15 08:24:36;;;;;;;0.00;0.00;;;;;;;13.45;59.92;98843.47;5278659;27;20454;-86
2023/11/15 08:27:03;;;;;;;0.00;0.00;;;;;;;13.51;59.92;98852.75;5297859;27;20079;-87
2023/11/15 08:29:28;;;;;;;0.00;0.00;;;;;;;13.47;59.91;98852.06;5297822;27;20745;-86
2023/11/15 08:31:54;;;;;;;0.03;0.03;;;;;;;13.52;59.92;98859.66;5314210;27;25475;-89
2023/11/15 08:34:24;;;;;;;0.45;0.45;;;;;;;13.60;59.92;98867.03;5299153;27;20073;-88
2023/11/15 08:36:50;;;;;;;0.00;0.00;;;;;;;13.60;59.92;98851.34;5317154;27;20065;-88
2023/11/15 08:39:16;;;;;;;0.20;0.20;;;;;;;13.63;59.92;98859.84;5298996;27;20061;-90
2023/11/15 08:41:42;;;;;;;0.00;0.00;;;;;;;13.76;59.93;98871.28;5298361;27;20378;-86
2023/11/15 08:44:10;;;;;;;0.00;0.00;;;;;;;13.70;59.93;98868.19;5298573;27;20121;-88
2023/11/15 08:46:41;;;;;;;0.00;0.00;;;;;;;13.70;59.93;98868.19;5298537;27;20096;-88
2023/11/15 08:49:06;;;;;;;0.00;0.00;;;;;;;13.71;59.93;98885.56;5297814;27;20072;-86
2023/11/15 08:51:32;;;;;;;0.00;0.00;;;;;;;13.89;59.94;98892.31;5316975;27;20401;-87
2023/11/15 08:53:58;;;;;;;0.00;0.00;;;;;;;13.93;59.94;98892.97;5317279;27;20335;-88
2023/11/15 08:56:23;;;;;;;0.20;0.20;;;;;;;14.07;59.95;98901.69;5317966;27;20068;-91
2023/11/15 08:58:48;;;;;;;0.00;0.00;;;;;;;14.07;59.95;98899.09;5298084;27;20057;-89
2023/11/15 09:01:16;;;;;;;0.00;0.00;;;;;;;13.93;59.94;98898.22;5297983;27;20120;-86
2023/11/15 09:03:43;;;;;;;0.00;0.00;;;;;;;14.04;59.96;98901.06;5298775;27;20068;-86
2023/11/15 09:06:11;;;;;;;0.00;0.00;;;;;;;13.99;59.95;98901.31;5299060;27;20078;-91
2023/11/15 09:08:38;;;;;;;0.00;0.00;;;;;;;13.94;59.94;98900.72;5299010;27;20472;-89
2023/11/15 09:11:05;;;;;;;0.00;0.00;;;;;;;13.90;59.94;98907.09;5299634;27;20454;-89
2023/11/15 09:13:33;;;;;;;0.00;0.00;;;;;;;13.83;59.94;98911.00;5299388;27;20066;-89
2023/11/15 09:15:58;;;;;;;0.00;0.00;;;;;;;13.89;59.94;98922.88;5300259;27;20049;-91
2023/11/15 09:18:24;;;;;;;0.00;0.00;;;;;;;13.88;59.95;98932.50;5300600;27;20418;-90
2023/11/15 09:20:50;;;;;;;0.00;0.00;;;;;;;13.82;59.94;98943.31;5299359;27;20068;-90
2023/11/15 09:23:16;;;;;;;0.00;0.00;;;;;;;14.10;59.94;98940.78;5299494;27;20065;-90
2023/11/15 09:25:42;;;;;;;0.00;0.00;;;;;;;13.96;59.95;98942.50;5298997;27;20054;-90
2023/11/15 09:28:09;;;;;;;0.00;0.00;;;;;;;14.09;59.95;98956.56;5299056;27;20061;-89
2023/11/15 09:30:35;;;;;;;0.00;0.00;;;;;;;14.21;59.96;98952.41;5307810;27;20025;-89
2023/11/15 09:33:05;;;;;;;0.00;0.00;;;;;;;14.17;59.95;98958.72;5285023;27;20425;-89
2023/11/15 09:35:31;;;;;;;0.00;0.00;;;;;;;14.22;59.96;98985.50;5286419;27;20067;-90
2023/11/15 09:37:57;;;;;;;0.00;0.00;;;;;;;14.08;59.95;98978.44;5285132;27;20060;-89
2023/11/15 09:40:22;;;;;;;0.00;0.00;;;;;;;13.98;59.94;98972.91;5284186;27;20143;-88
2023/11/15 09:42:51;;;;;;;0.00;0.00;;;;;;;14.00;59.95;98981.50;5284224;27;20057;-87
2023/11/15 09:45:18;;;;;;;0.00;0.00;;;;;;;13.73;59.94;98973.47;5284653;27;20098;-89
2023/11/15 09:47:48;;;;;;;0.00;0.00;;;;;;;13.93;59.94;98980.16;5284082;27;20081;-88
2023/11/15 09:50:15;;;;;;;0.00;0.00;;;;;;;14.06;59.95;98972.44;5284946;27;20079;-87
2023/11/15 09:52:40;;;;;;;0.00;0.00;;;;;;;14.13;59.95;98994.69;5302526;27;20154;-91
2023/11/15 09:55:07;;;;;;;0.00;0.00;;;;;;;14.19;59.96;98986.47;5281243;27;32943;-88
2023/11/15 09:57:36;;;;;;;0.00;0.00;;;;;;;14.18;59.96;98999.66;5283991;27;20129;-88
2023/11/15 10:00:11;;;;;;;0.00;0.00;;;;;;;14.09;59.96;98999.28;5284259;27;20119;-88
2023/11/15 10:02:39;;;;;;;0.00;0.00;;;;;;;14.05;59.95;98996.94;5285642;27;20049;-89
2023/11/15 10:05:11;;;;;;;1.05;0.30;;;;;;;14.00;59.95;98997.22;5283398;27;20057;-86
2023/11/15 10:07:37;;;;;;;0.00;0.00;;;;;;;14.03;59.96;99019.72;5282899;27;20064;-88
2023/11/15 10:10:16;;;;;;;0.05;0.05;;;;;;;13.99;59.94;99013.00;5300687;27;20073;-87
2023/11/15 10:12:42;;;;;;;0.00;0.00;;;;;;;14.14;59.95;99004.25;5302543;27;20418;-87
2023/11/15 10:15:11;;;;;;;0.00;0.00;;;;;;;14.01;59.95;99008.50;5283836;27;20067;-89
2023/11/15 10:17:42;;;;;;;0.00;0.00;;;;;;;14.30;59.96;98997.19;5284893;27;20132;-88
2023/11/15 10:20:19;;;;;;;0.00;0.00;;;;;;;14.27;59.97;99002.59;5283806;27;20432;-89
2023/11/15 10:22:45;;;;;;;0.00;0.00;;;;;;;14.33;59.96;99017.09;5282523;27;20067;-86
2023/11/15 10:25:13;;;;;;;0.00;0.00;;;;;;;14.17;59.95;99016.31;5282685;27;20111;-88
2023/11/15 10:27:39;;;;;;;0.52;0.52;;;;;;;14.28;59.97;99027.84;5319842;27;20077;-87
2023/11/15 10:30:16;;;;;;;0.00;0.00;;;;;;;14.31;59.96;99018.97;5287105;26;20142;-88
2023/11/15 10:32:44;;;;;;;0.00;0.00;;;;;;;14.46;59.97;99032.97;5288011;26;20063;-89
2023/11/15 10:35:10;;;;;;;0.00;0.00;;;;;;;14.49;59.98;99033.63;5287597;26;20400;-89
2023/11/15 10:37:49;;;;;;;0.00;0.00;;;;;;;14.70;59.98;99045.44;5324724;26;20452;-89
2023/11/15 10:40:14;;;;;;;0.93;0.93;;;;;;;14.56;59.98;99034.94;5306341;26;20056;-89
2023/11/15 10:42:45;;;;;;;0.00;0.00;;;;;;;14.47;59.97;99048.59;5304674;26;31495;-87
2023/11/15 10:45:12;;;;;;;0.00;0.00;;;;;;;14.42;59.97;99048.81;5305602;26;20096;-87
2023/11/15 10:47:37;;;;;;;0.00;0.00;;;;;;;14.46;59.97;99065.25;5323398;26;20071;-87
2023/11/15 10:50:05;;;;;;;0.00;0.00;;;;;;;14.48;59.98;99060.75;5323469;26;21015;-87
2023/11/15 10:52:31;;;;;;;0.00;0.00;;;;;;;14.47;59.97;99072.16;5305413;26;20764;-88
2023/11/15 10:54:57;;;;;;;0.00;0.00;;;;;;;14.27;59.97;99075.91;5304096;26;20115;-86
2023/11/15 10:57:22;;;;;;;0.00;0.00;;;;;;;14.36;59.97;99083.22;5323462;26;20052;-86
2023/11/15 10:59:48;;;;;;;0.00;0.00;;;;;;;14.28;59.97;99090.69;5304341;26;20083;-87
2023/11/15 11:02:14;;;;;;;0.00;0.00;;;;;;;14.39;59.97;99093.50;5305058;26;20076;-87
2023/11/15 11:04:40;;;;;;;7.12;1.90;;;;;;;14.38;59.97;99077.88;5286870;26;20892;-87
2023/11/15 11:07:14;;;;;;;0.00;0.00;;;;;;;14.28;59.97;99080.19;5304468;26;22539;-87
2023/11/15 11:09:50;;;;;;;0.00;0.00;;;;;;;14.39;59.97;99076.94;5305359;26;20056;-88
2023/11/15 11:12:16;;;;;;;0.00;0.00;;;;;;;14.40;59.98;99089.94;5286836;26;20100;-87
2023/11/15 11:14:42;;;;;;;0.00;0.00;;;;;;;14.52;59.97;99084.97;5287616;26;20468;-87
2023/11/15 11:17:33;;;;;;;0.00;0.00;;;;;;;14.53;59.98;99089.28;5304510;26;20117;-86
2023/11/15 11:20:04;;;;;;;0.03;0.03;;;;;;;14.54;59.97;99078.72;5305361;26;20124;-87
2023/11/15 11:22:30;;;;;;;0.00;0.00;;;;;;;14.29;59.97;99084.50;5288320;26;20048;-88
2023/11/15 11:25:07;;;;;;;0.00;0.00;;;;;;;14.33;59.96;99088.63;5323675;26;20117;-86
2023/11/15 11:27:33;;;;;;;0.00;0.00;;;;;;;14.29;59.96;99096.75;5343925;26;20108;-87
2023/11/15 11:30:00;;;;;;;0.00;0.00;;;;;;;14.15;59.96;99094.91;5305237;26;20060;-88